createdAt,value
2022-11-25T00:06:28.350Z,-62
2022-11-25T00:14:00.629Z,-62
2022-11-25T00:21:32.903Z,-62
2022-11-25T00:29:05.208Z,-62
2022-11-25T00:36:37.491Z,-62
2022-11-25T00:44:09.789Z,-62
2022-11-25T00:51:42.063Z,-62
2022-11-25T00:59:14.322Z,-62
2022-11-25T01:06:46.591Z,-62
2022-11-25T01:14:18.862Z,-61
2022-11-25T01:21:51.171Z,-62
2022-11-25T01:29:23.451Z,-61
2022-11-25T01:36:55.761Z,-62
2022-11-25T01:44:28.080Z,-62
2022-11-25T01:52:00.385Z,-62
2022-11-25T01:59:32.688Z,-61
2022-11-25T02:07:04.958Z,-61
2022-11-25T02:14:37.431Z,-61
2022-11-25T02:22:09.946Z,-61
2022-11-25T02:29:42.264Z,-61
2022-11-25T02:37:14.546Z,-61
2022-11-25T02:44:46.828Z,-61
2022-11-25T02:52:19.125Z,-61
2022-11-25T02:59:51.402Z,-62
2022-11-25T03:07:23.850Z,-61
2022-11-25T03:14:56.177Z,-61
2022-11-25T03:22:28.438Z,-60
2022-11-25T03:30:00.721Z,-61
2022-11-25T03:37:32.997Z,-61
2022-11-25T03:45:05.297Z,-61
2022-11-25T03:52:37.562Z,-61
2022-11-25T04:00:09.831Z,-61
2022-11-25T04:07:42.146Z,-61
2022-11-25T04:15:14.502Z,-61
2022-11-25T04:22:46.813Z,-60
2022-11-25T04:30:19.248Z,-62
2022-11-25T04:37:51.568Z,-60
2022-11-25T04:45:24.308Z,-62
2022-11-25T04:52:56.930Z,-61
2022-11-25T05:00:29.234Z,-60
2022-11-25T05:08:01.503Z,-61
2022-11-25T05:15:33.804Z,-60
2022-11-25T05:20:56.249Z,-62
2022-11-25T05:21:43.555Z,-62
2022-11-25T05:22:30.860Z,-61
2022-11-25T05:23:18.161Z,-61
2022-11-25T05:24:05.446Z,-61
2022-11-25T05:24:52.761Z,-61
2022-11-25T05:25:40.023Z,-61
2022-11-25T05:26:27.298Z,-61
2022-11-25T05:27:14.660Z,-61
2022-11-25T05:28:01.922Z,-62
2022-11-25T05:28:49.195Z,-61
2022-11-25T05:29:36.531Z,-60
2022-11-25T05:30:23.932Z,-60
2022-11-25T05:31:11.353Z,-61
2022-11-25T05:31:58.679Z,-60
2022-11-25T05:32:45.974Z,-61
2022-11-25T05:33:33.274Z,-60
2022-11-25T05:34:20.554Z,-61
2022-11-25T05:35:07.848Z,-61
2022-11-25T05:35:55.152Z,-60
2022-11-25T05:36:42.476Z,-61
2022-11-25T05:37:29.734Z,-61
2022-11-25T05:38:17.040Z,-61
2022-11-25T05:39:04.344Z,-60
2022-11-25T05:39:51.678Z,-63
2022-11-25T05:40:38.981Z,-62
2022-11-25T05:41:26.288Z,-62
2022-11-25T05:42:13.565Z,-63
2022-11-25T05:43:00.839Z,-62
2022-11-25T05:43:48.191Z,-60
2022-11-25T05:44:35.694Z,-61
2022-11-25T05:45:23.227Z,-59
2022-11-25T05:46:10.588Z,-61
2022-11-25T05:46:58.023Z,-60
2022-11-25T05:47:45.329Z,-60
2022-11-25T05:48:32.620Z,-60
2022-11-25T05:49:19.920Z,-61
2022-11-25T05:50:07.224Z,-61
2022-11-25T05:50:54.501Z,-61
2022-11-25T05:51:41.801Z,-61
2022-11-25T05:52:29.079Z,-60
2022-11-25T05:53:16.359Z,-60
2022-11-25T05:54:03.749Z,-60
2022-11-25T05:54:55.744Z,-61
2022-11-25T05:55:44.413Z,-62
2022-11-25T05:56:31.809Z,-64
2022-11-25T05:57:19.094Z,-59
2022-11-25T05:58:06.405Z,-60
2022-11-25T05:58:53.775Z,-63
2022-11-25T05:59:41.241Z,-62
2022-11-25T06:00:28.507Z,-61
2022-11-25T06:01:16.244Z,-59
2022-11-25T06:02:03.690Z,-60
2022-11-25T06:02:51.192Z,-61
2022-11-25T06:03:38.668Z,-59
2022-11-25T06:04:25.951Z,-61
2022-11-25T06:05:13.206Z,-58
2022-11-25T06:06:00.543Z,-59
2022-11-25T06:06:47.823Z,-61
2022-11-25T06:07:35.171Z,-59
2022-11-25T06:08:22.521Z,-58
2022-11-25T06:09:09.824Z,-61
2022-11-25T06:10:02.723Z,-59
2022-11-25T06:10:50.476Z,-60
2022-11-25T06:11:37.878Z,-62
2022-11-25T06:12:25.177Z,-60
2022-11-25T06:13:12.488Z,-61
2022-11-25T06:13:59.903Z,-60
2022-11-25T06:14:47.214Z,-60
2022-11-25T06:15:34.542Z,-61
2022-11-25T06:16:21.967Z,-60
2022-11-25T06:17:09.275Z,-59
2022-11-25T06:17:56.539Z,-61
2022-11-25T06:18:43.939Z,-60
2022-11-25T06:19:31.244Z,-60
2022-11-25T06:20:18.550Z,-59
2022-11-25T06:21:05.952Z,-62
2022-11-25T06:21:53.222Z,-61
2022-11-25T06:22:40.528Z,-61
2022-11-25T06:23:27.912Z,-62
2022-11-25T06:24:15.213Z,-59
2022-11-25T06:25:03.992Z,-62
2022-11-25T06:25:51.595Z,-63
2022-11-25T06:26:38.891Z,-63
2022-11-25T06:27:26.228Z,-62
2022-11-25T06:28:13.789Z,-63
2022-11-25T06:29:01.216Z,-62
2022-11-25T06:29:48.476Z,-65
2022-11-25T06:30:35.803Z,-66
2022-11-25T06:31:23.242Z,-63
2022-11-25T06:32:10.546Z,-64
2022-11-25T06:32:57.876Z,-64
2022-11-25T06:33:45.233Z,-61
2022-11-25T06:34:32.533Z,-62
2022-11-25T06:35:19.844Z,-63
2022-11-25T06:36:07.241Z,-62
2022-11-25T06:36:54.532Z,-63
2022-11-25T06:37:41.800Z,-63
2022-11-25T06:38:29.230Z,-61
2022-11-25T06:39:16.502Z,-64
2022-11-25T06:40:03.809Z,-63
2022-11-25T06:40:53.100Z,-63
2022-11-25T06:41:41.354Z,-62
2022-11-25T06:42:28.682Z,-60
2022-11-25T06:43:15.958Z,-65
2022-11-25T06:44:03.238Z,-65
2022-11-25T06:44:50.665Z,-64
2022-11-25T06:45:38.071Z,-63
2022-11-25T06:46:25.675Z,-64
2022-11-25T06:47:13.226Z,-66
2022-11-25T06:48:00.717Z,-67
2022-11-25T06:48:47.994Z,-64
2022-11-25T06:49:35.435Z,-63
2022-11-25T06:50:22.748Z,-62
2022-11-25T06:51:10.034Z,-65
2022-11-25T06:51:57.335Z,-62
2022-11-25T06:52:44.651Z,-60
2022-11-25T06:53:31.964Z,-61
2022-11-25T06:54:19.241Z,-62
2022-11-25T06:55:06.607Z,-63
2022-11-25T06:55:53.921Z,-63
2022-11-25T06:56:41.199Z,-64
2022-11-25T06:57:28.557Z,-64
2022-11-25T06:58:34.821Z,-64
2022-11-25T06:59:13.232Z,-63
2022-11-25T07:00:00.614Z,-63
2022-11-25T07:00:47.913Z,-63
2022-11-25T07:01:35.232Z,-64
2022-11-25T07:02:22.636Z,-63
2022-11-25T07:03:10.003Z,-63
2022-11-25T07:03:57.374Z,-63
2022-11-25T07:04:44.797Z,-64
2022-11-25T07:05:32.096Z,-64
2022-11-25T07:06:19.436Z,-63
2022-11-25T07:07:06.790Z,-63
2022-11-25T07:07:54.081Z,-64
2022-11-25T07:08:41.367Z,-62
2022-11-25T07:09:31.784Z,-62
2022-11-25T07:10:19.017Z,-61
2022-11-25T07:11:06.328Z,-62
2022-11-25T07:11:53.554Z,-62
2022-11-25T07:12:40.966Z,-63
2022-11-25T07:13:28.229Z,-60
2022-11-25T07:14:15.522Z,-64
2022-11-25T07:15:02.790Z,-63
2022-11-25T07:15:50.196Z,-61
2022-11-25T07:16:37.516Z,-62
2022-11-25T07:17:24.782Z,-62
2022-11-25T07:18:12.127Z,-62
2022-11-25T07:18:59.433Z,-62
2022-11-25T07:19:46.708Z,-63
2022-11-25T07:20:34.015Z,-62
2022-11-25T07:21:21.481Z,-63
2022-11-25T07:22:08.755Z,-63
2022-11-25T07:22:56.106Z,-64
2022-11-25T07:23:43.394Z,-65
2022-11-25T07:24:30.709Z,-64
2022-11-25T07:25:17.979Z,-62
2022-11-25T07:26:05.280Z,-65
2022-11-25T07:26:52.609Z,-66
2022-11-25T07:27:39.886Z,-67
2022-11-25T07:28:27.192Z,-65
2022-11-25T07:29:36.453Z,-66
2022-11-25T07:31:09.496Z,-67
2022-11-25T07:31:23.340Z,-64
2022-11-25T07:32:10.457Z,-64
2022-11-25T07:32:58.271Z,-62
2022-11-25T07:33:45.718Z,-63
2022-11-25T07:34:33.060Z,-64
2022-11-25T07:35:20.368Z,-63
2022-11-25T07:36:07.814Z,-62
2022-11-25T07:36:55.107Z,-62
2022-11-25T07:37:42.388Z,-62
2022-11-25T07:38:29.808Z,-62
2022-11-25T07:39:17.075Z,-63
2022-11-25T07:40:04.346Z,-63
2022-11-25T07:40:51.807Z,-65
2022-11-25T07:41:39.076Z,-62
2022-11-25T07:42:26.378Z,-62
2022-11-25T07:43:13.772Z,-61
2022-11-25T07:44:01.040Z,-63
2022-11-25T07:44:48.314Z,-62
2022-11-25T07:45:35.711Z,-62
2022-11-25T07:46:26.764Z,-61
2022-11-25T07:47:14.792Z,-63
2022-11-25T07:48:02.154Z,-62
2022-11-25T07:48:49.444Z,-63
2022-11-25T07:49:36.915Z,-63
2022-11-25T07:50:24.307Z,-63
2022-11-25T07:51:11.580Z,-64
2022-11-25T07:51:58.864Z,-65
2022-11-25T07:52:46.243Z,-63
2022-11-25T07:53:33.556Z,-65
2022-11-25T07:54:20.835Z,-66
2022-11-25T07:55:08.235Z,-63
2022-11-25T07:55:55.546Z,-63
2022-11-25T07:56:42.818Z,-64
2022-11-25T07:57:30.221Z,-62
2022-11-25T07:58:17.487Z,-62
2022-11-25T07:59:04.804Z,-63
2022-11-25T07:59:52.211Z,-63
2022-11-25T08:00:39.522Z,-64
2022-11-25T08:01:26.861Z,-63
2022-11-25T08:02:14.359Z,-62
2022-11-25T08:03:02.239Z,-64
2022-11-25T08:03:49.794Z,-61
2022-11-25T08:04:37.217Z,-63
2022-11-25T08:05:24.685Z,-62
2022-11-25T08:06:11.961Z,-62
2022-11-25T08:06:59.416Z,-62
2022-11-25T08:07:46.772Z,-63
2022-11-25T08:08:34.190Z,-64
2022-11-25T08:09:21.495Z,-63
2022-11-25T08:10:08.829Z,-64
2022-11-25T08:10:56.107Z,-64
2022-11-25T08:11:43.570Z,-64
2022-11-25T08:12:30.874Z,-63
2022-11-25T08:13:18.155Z,-64
2022-11-25T08:14:05.611Z,-64
2022-11-25T08:14:52.917Z,-63
2022-11-25T08:15:40.315Z,-64
2022-11-25T08:16:27.813Z,-65
2022-11-25T08:17:15.135Z,-61
2022-11-25T08:18:02.396Z,-62
2022-11-25T08:18:49.835Z,-61
2022-11-25T08:19:37.335Z,-63
2022-11-25T08:20:24.676Z,-61
2022-11-25T08:21:12.108Z,-63
2022-11-25T08:21:59.371Z,-63
2022-11-25T08:22:46.656Z,-63
2022-11-25T08:23:34.074Z,-63
2022-11-25T08:24:21.415Z,-62
2022-11-25T08:25:08.692Z,-62
2022-11-25T08:25:56.121Z,-61
2022-11-25T08:26:43.425Z,-63
2022-11-25T08:27:30.694Z,-61
2022-11-25T08:28:18.086Z,-61
2022-11-25T08:29:05.376Z,-64
2022-11-25T08:29:52.683Z,-61
2022-11-25T08:30:40.069Z,-63
2022-11-25T08:31:27.449Z,-60
2022-11-25T08:32:14.767Z,-61
2022-11-25T08:33:02.162Z,-61
2022-11-25T08:33:49.456Z,-60
2022-11-25T08:34:36.822Z,-59
2022-11-25T08:35:24.176Z,-60
2022-11-25T08:36:11.497Z,-60
2022-11-25T08:36:58.817Z,-60
2022-11-25T08:37:46.299Z,-60
2022-11-25T08:38:33.586Z,-60
2022-11-25T08:39:51.993Z,-60
2022-11-25T08:40:18.178Z,-60
2022-11-25T08:41:05.589Z,-62
2022-11-25T08:41:52.881Z,-59
2022-11-25T08:42:40.185Z,-61
2022-11-25T08:43:29.517Z,-60
2022-11-25T08:44:17.099Z,-59
2022-11-25T08:45:04.425Z,-60
2022-11-25T08:45:51.773Z,-63
2022-11-25T08:46:39.133Z,-60
2022-11-25T08:47:26.461Z,-61
2022-11-25T08:48:13.735Z,-62
2022-11-25T08:49:01.052Z,-60
2022-11-25T08:49:48.599Z,-60
2022-11-25T08:50:36.032Z,-61
2022-11-25T08:51:23.343Z,-62
2022-11-25T08:52:10.633Z,-60
2022-11-25T08:52:57.894Z,-61
2022-11-25T08:53:45.196Z,-58
2022-11-25T08:54:32.467Z,-58
2022-11-25T08:55:19.797Z,-59
2022-11-25T08:56:07.072Z,-62
2022-11-25T08:56:54.392Z,-62
2022-11-25T08:57:41.677Z,-61
2022-11-25T08:58:28.973Z,-59
2022-11-25T08:59:16.293Z,-58
2022-11-25T09:00:03.572Z,-58
2022-11-25T09:00:50.860Z,-60
2022-11-25T09:01:38.228Z,-60
2022-11-25T09:02:25.712Z,-60
2022-11-25T09:03:13.121Z,-64
2022-11-25T09:04:00.456Z,-60
2022-11-25T09:04:47.717Z,-62
2022-11-25T09:05:35.041Z,-60
2022-11-25T09:06:22.326Z,-61
2022-11-25T09:07:09.635Z,-58
2022-11-25T09:07:57.023Z,-59
2022-11-25T09:08:44.450Z,-60
2022-11-25T09:09:31.763Z,-60
2022-11-25T09:10:19.086Z,-58
2022-11-25T09:11:06.427Z,-58
2022-11-25T09:11:53.795Z,-61
2022-11-25T09:12:41.093Z,-62
2022-11-25T09:13:28.382Z,-61
2022-11-25T09:14:15.746Z,-61
2022-11-25T09:15:03.130Z,-59
2022-11-25T09:15:50.433Z,-60
2022-11-25T09:16:37.814Z,-60
2022-11-25T09:17:25.228Z,-62
2022-11-25T09:18:12.520Z,-61
2022-11-25T09:18:59.784Z,-61
2022-11-25T09:19:47.052Z,-60
2022-11-25T09:20:34.411Z,-61
2022-11-25T09:21:21.691Z,-62
2022-11-25T09:22:08.973Z,-61
2022-11-25T09:22:56.325Z,-59
2022-11-25T09:23:43.632Z,-60
2022-11-25T09:24:30.918Z,-61
2022-11-25T09:25:18.288Z,-61
2022-11-25T09:26:05.560Z,-61
2022-11-25T09:26:52.868Z,-61
2022-11-25T09:27:40.224Z,-61
2022-11-25T09:28:27.537Z,-63
2022-11-25T09:29:14.844Z,-61
2022-11-25T09:30:02.123Z,-61
2022-11-25T09:30:49.510Z,-61
2022-11-25T09:31:36.984Z,-61
2022-11-25T09:32:24.327Z,-60
2022-11-25T09:33:11.628Z,-60
2022-11-25T09:33:58.901Z,-61
2022-11-25T09:34:46.189Z,-60
2022-11-25T09:35:33.464Z,-61
2022-11-25T09:36:20.845Z,-60
2022-11-25T09:37:08.119Z,-58
2022-11-25T09:37:55.417Z,-60
2022-11-25T09:38:43.421Z,-60
2022-11-25T09:39:30.802Z,-59
2022-11-25T09:40:18.129Z,-60
2022-11-25T09:41:05.455Z,-57
2022-11-25T09:41:52.722Z,-57
2022-11-25T09:42:40.085Z,-59
2022-11-25T09:43:27.392Z,-59
2022-11-25T09:44:14.699Z,-58
2022-11-25T09:45:02.033Z,-58
2022-11-25T09:45:49.337Z,-58
2022-11-25T09:46:36.682Z,-58
2022-11-25T09:47:24.041Z,-59
2022-11-25T09:48:11.323Z,-57
2022-11-25T09:48:58.591Z,-59
2022-11-25T09:49:45.948Z,-62
2022-11-25T09:50:33.240Z,-59
2022-11-25T09:51:20.572Z,-60
2022-11-25T09:52:07.856Z,-61
2022-11-25T09:52:55.174Z,-60
2022-11-25T09:53:42.451Z,-62
2022-11-25T09:54:29.799Z,-61
2022-11-25T09:55:17.113Z,-61
2022-11-25T09:56:04.386Z,-62
2022-11-25T09:56:51.752Z,-62
2022-11-25T09:57:39.072Z,-62
2022-11-25T09:58:26.346Z,-62
2022-11-25T09:59:13.675Z,-64
2022-11-25T10:00:01.015Z,-61
2022-11-25T10:00:48.309Z,-62
2022-11-25T10:01:35.584Z,-61
2022-11-25T10:02:22.960Z,-60
2022-11-25T10:03:10.525Z,-61
2022-11-25T10:03:57.883Z,-61
2022-11-25T10:04:45.155Z,-61
2022-11-25T10:05:32.463Z,-60
2022-11-25T10:06:19.820Z,-62
2022-11-25T10:07:07.117Z,-64
2022-11-25T10:07:54.396Z,-63
2022-11-25T10:08:41.728Z,-64
2022-11-25T10:09:29.058Z,-64
2022-11-25T10:10:16.379Z,-65
2022-11-25T10:11:03.663Z,-65
2022-11-25T10:11:50.969Z,-64
2022-11-25T10:12:38.273Z,-64
2022-11-25T10:13:25.598Z,-63
2022-11-25T10:14:12.909Z,-64
2022-11-25T10:15:00.186Z,-64
2022-11-25T10:15:47.548Z,-60
2022-11-25T10:16:34.923Z,-59
2022-11-25T10:17:22.265Z,-57
2022-11-25T10:18:09.604Z,-61
2022-11-25T10:18:56.914Z,-60
2022-11-25T10:19:44.228Z,-61
2022-11-25T10:20:31.545Z,-60
2022-11-25T10:21:18.859Z,-61
2022-11-25T10:22:06.132Z,-61
2022-11-25T10:22:53.477Z,-60
2022-11-25T10:23:40.754Z,-61
2022-11-25T10:24:28.034Z,-62
2022-11-25T10:25:15.334Z,-60
2022-11-25T10:26:02.632Z,-61
2022-11-25T10:26:49.898Z,-61
2022-11-25T10:27:37.339Z,-60
2022-11-25T10:28:24.659Z,-60
2022-11-25T10:29:11.962Z,-61
2022-11-25T10:29:59.228Z,-62
2022-11-25T10:30:46.664Z,-61
2022-11-25T10:31:34.015Z,-61
2022-11-25T10:32:21.302Z,-61
2022-11-25T10:33:08.613Z,-60
2022-11-25T10:33:55.917Z,-62
2022-11-25T10:34:43.291Z,-63
2022-11-25T10:35:30.575Z,-61
2022-11-25T10:36:18.346Z,-62
2022-11-25T10:37:05.695Z,-62
2022-11-25T10:37:53.189Z,-61
2022-11-25T10:38:40.476Z,-62
2022-11-25T10:39:27.749Z,-62
2022-11-25T10:40:15.190Z,-63
2022-11-25T10:41:02.461Z,-61
2022-11-25T10:41:49.742Z,-61
2022-11-25T10:42:37.010Z,-62
2022-11-25T10:43:28.709Z,-63
2022-11-25T10:44:18.940Z,-61
2022-11-25T10:45:06.316Z,-61
2022-11-25T10:45:53.582Z,-60
2022-11-25T10:47:11.527Z,-61
2022-11-25T10:47:38.307Z,-61
2022-11-25T10:48:25.922Z,-61
2022-11-25T10:49:13.320Z,-61
2022-11-25T10:50:00.629Z,-63
2022-11-25T10:50:47.960Z,-62
2022-11-25T10:51:35.261Z,-60
2022-11-25T10:52:22.527Z,-63
2022-11-25T10:53:09.855Z,-62
2022-11-25T10:53:57.119Z,-60
2022-11-25T10:54:46.992Z,-61
2022-11-25T10:55:34.300Z,-62
2022-11-25T10:56:21.706Z,-63
2022-11-25T10:57:09.008Z,-63
2022-11-25T10:57:56.320Z,-61
2022-11-25T10:58:43.659Z,-61
2022-11-25T10:59:30.922Z,-65
2022-11-25T11:00:18.198Z,-63
2022-11-25T11:01:05.603Z,-63
2022-11-25T11:01:52.975Z,-64
2022-11-25T11:02:40.369Z,-65
2022-11-25T11:03:27.747Z,-64
2022-11-25T11:04:15.153Z,-62
2022-11-25T11:05:02.446Z,-63
2022-11-25T11:05:49.827Z,-63
2022-11-25T11:06:37.130Z,-62
2022-11-25T11:07:24.435Z,-63
2022-11-25T11:08:11.811Z,-62
2022-11-25T11:08:59.089Z,-62
2022-11-25T11:09:46.367Z,-63
2022-11-25T11:10:33.848Z,-62
2022-11-25T11:11:21.160Z,-62
2022-11-25T11:12:08.486Z,-62
2022-11-25T11:12:55.929Z,-61
2022-11-25T11:13:43.280Z,-62
2022-11-25T11:14:30.622Z,-61
2022-11-25T11:15:18.032Z,-62
2022-11-25T11:16:05.376Z,-61
2022-11-25T11:16:52.717Z,-62
2022-11-25T11:17:40.157Z,-63
2022-11-25T11:18:27.437Z,-63
2022-11-25T11:19:14.711Z,-62
2022-11-25T11:20:02.176Z,-61
2022-11-25T11:20:49.496Z,-62
2022-11-25T11:21:36.774Z,-62
2022-11-25T11:29:13.962Z,-62
2022-11-25T11:36:46.522Z,-62
2022-11-25T11:44:18.839Z,-62
2022-11-25T11:51:31.104Z,-61
2022-11-25T11:52:18.726Z,-62
2022-11-25T11:53:06.050Z,-63
2022-11-25T11:53:53.358Z,-62
2022-11-25T11:54:40.661Z,-63
2022-11-25T11:55:27.953Z,-62
2022-11-25T11:57:12.464Z,-62
2022-11-25T11:57:59.925Z,-61
2022-11-25T11:58:47.253Z,-59
2022-11-25T11:59:34.569Z,-62
2022-11-25T12:00:21.956Z,-61
2022-11-25T12:01:09.240Z,-60
2022-11-25T12:01:56.606Z,-62
2022-11-25T12:02:43.994Z,-61
2022-11-25T12:03:31.325Z,-63
2022-11-25T12:04:18.647Z,-61
2022-11-25T12:05:06.030Z,-63
2022-11-25T12:05:53.334Z,-63
2022-11-25T12:06:40.606Z,-61
2022-11-25T12:07:28.317Z,-64
2022-11-25T12:08:15.650Z,-62
2022-11-25T12:09:02.948Z,-62
2022-11-25T12:09:50.323Z,-66
2022-11-25T12:10:37.594Z,-64
2022-11-25T12:11:25.372Z,-65
2022-11-25T12:12:12.702Z,-65
2022-11-25T12:13:00.026Z,-66
2022-11-25T12:13:47.467Z,-65
2022-11-25T12:14:35.236Z,-65
2022-11-25T12:15:22.793Z,-65
2022-11-25T12:16:10.226Z,-68
2022-11-25T12:16:57.592Z,-69
2022-11-25T12:17:44.918Z,-65
2022-11-25T12:18:32.212Z,-67
2022-11-25T12:19:19.526Z,-63
2022-11-25T12:20:06.795Z,-67
2022-11-25T12:20:54.097Z,-66
2022-11-25T12:21:42.238Z,-65
2022-11-25T12:22:29.820Z,-63
2022-11-25T12:23:17.231Z,-62
2022-11-25T12:24:04.579Z,-64
2022-11-25T12:24:51.870Z,-62
2022-11-25T12:25:39.328Z,-64
2022-11-25T12:26:26.599Z,-62
2022-11-25T12:27:13.870Z,-63
2022-11-25T12:28:01.335Z,-63
2022-11-25T12:28:48.634Z,-64
2022-11-25T12:29:35.899Z,-62
2022-11-25T12:30:23.377Z,-64
2022-11-25T12:31:10.694Z,-63
2022-11-25T12:31:58.172Z,-64
2022-11-25T12:32:45.552Z,-64
2022-11-25T12:33:32.794Z,-65
2022-11-25T12:34:20.096Z,-62
2022-11-25T12:35:07.520Z,-63
2022-11-25T12:35:54.784Z,-63
2022-11-25T12:36:42.196Z,-63
2022-11-25T12:37:29.637Z,-62
2022-11-25T12:38:16.948Z,-63
2022-11-25T12:39:04.262Z,-63
2022-11-25T12:39:51.621Z,-63
2022-11-25T12:40:38.910Z,-61
2022-11-25T12:41:26.225Z,-62
2022-11-25T12:42:13.592Z,-62
2022-11-25T12:43:00.925Z,-63
2022-11-25T12:43:48.203Z,-64
2022-11-25T12:44:35.923Z,-62
2022-11-25T12:45:23.737Z,-63
2022-11-25T12:46:11.124Z,-62
2022-11-25T12:46:58.483Z,-60
2022-11-25T12:47:45.930Z,-61
2022-11-25T12:48:33.244Z,-60
2022-11-25T12:49:20.558Z,-60
2022-11-25T12:50:08.002Z,-61
2022-11-25T12:50:55.290Z,-62
2022-11-25T12:51:42.593Z,-63
2022-11-25T12:52:30.060Z,-63
2022-11-25T12:53:17.379Z,-64
2022-11-25T12:54:04.663Z,-65
2022-11-25T12:54:52.158Z,-64
2022-11-25T12:55:39.482Z,-64
2022-11-25T12:56:26.861Z,-62
2022-11-25T12:57:14.225Z,-61
2022-11-25T12:58:01.498Z,-63
2022-11-25T12:58:48.834Z,-64
2022-11-25T12:59:36.232Z,-63
2022-11-25T13:01:20.872Z,-61
2022-11-25T13:02:08.565Z,-63
2022-11-25T13:02:56.011Z,-62
2022-11-25T13:03:43.380Z,-62
2022-11-25T13:04:30.703Z,-62
2022-11-25T13:06:15.306Z,-62
2022-11-25T13:07:02.672Z,-62
2022-11-25T13:07:50.100Z,-63
2022-11-25T13:08:37.445Z,-59
2022-11-25T13:09:24.874Z,-61
2022-11-25T13:10:12.194Z,-61
2022-11-25T13:10:55.400Z,-63
2022-11-25T13:10:59.594Z,-61
2022-11-25T13:11:47.323Z,-61
2022-11-25T13:12:35.099Z,-61
2022-11-25T13:13:23.297Z,-63
2022-11-25T13:14:11.360Z,-64
2022-11-25T13:14:59.719Z,-62
2022-11-25T13:15:47.774Z,-64
2022-11-25T13:16:35.806Z,-62
2022-11-25T13:17:23.620Z,-60
2022-11-25T13:18:11.319Z,-61
2022-11-25T13:18:58.692Z,-61
2022-11-25T13:19:46.021Z,-61
2022-11-25T13:20:33.332Z,-61
2022-11-25T13:21:20.646Z,-60
2022-11-25T13:22:07.975Z,-60
2022-11-25T13:22:55.342Z,-61
2022-11-25T13:23:48.662Z,-61
2022-11-25T13:24:36.835Z,-62
2022-11-25T13:25:24.613Z,-63
2022-11-25T13:26:11.993Z,-63
2022-11-25T13:26:59.275Z,-63
2022-11-25T13:27:46.596Z,-62
2022-11-25T13:28:33.938Z,-63
2022-11-25T13:29:21.249Z,-61
2022-11-25T13:30:08.603Z,-63
2022-11-25T13:30:55.953Z,-60
2022-11-25T13:31:43.288Z,-63
2022-11-25T13:32:30.682Z,-64
2022-11-25T13:33:18.074Z,-60
2022-11-25T13:34:05.317Z,-59
2022-11-25T13:34:52.684Z,-61
2022-11-25T13:35:40.232Z,-59
2022-11-25T13:36:27.570Z,-63
2022-11-25T13:37:14.863Z,-60
2022-11-25T13:38:02.365Z,-60
2022-11-25T13:38:49.705Z,-64
2022-11-25T13:39:37.067Z,-64
2022-11-25T13:40:24.474Z,-64
2022-11-25T13:41:11.800Z,-63
2022-11-25T13:41:59.099Z,-62
2022-11-25T13:42:46.526Z,-63
2022-11-25T13:43:33.808Z,-65
2022-11-25T13:44:21.128Z,-62
2022-11-25T13:45:08.600Z,-62
2022-11-25T13:45:55.942Z,-63
2022-11-25T13:46:43.324Z,-59
2022-11-25T13:47:30.681Z,-57
2022-11-25T13:48:17.988Z,-58
2022-11-25T13:49:05.321Z,-60
2022-11-25T13:49:52.719Z,-60
2022-11-25T13:51:03.479Z,-61
2022-11-25T13:51:37.353Z,-62
2022-11-25T13:52:24.732Z,-59
2022-11-25T13:53:12.540Z,-59
2022-11-25T13:54:00.001Z,-58
2022-11-25T13:54:47.408Z,-59
2022-11-25T13:55:34.729Z,-59
2022-11-25T13:56:22.020Z,-60
2022-11-25T13:57:09.446Z,-58
2022-11-25T13:57:56.775Z,-59
2022-11-25T13:58:44.161Z,-58
2022-11-25T13:59:31.484Z,-60
2022-11-25T14:00:18.766Z,-60
2022-11-25T14:01:06.054Z,-59
2022-11-25T14:01:53.566Z,-60
2022-11-25T14:02:41.028Z,-60
2022-11-25T14:03:28.479Z,-60
2022-11-25T14:04:15.871Z,-59
2022-11-25T14:05:03.131Z,-60
2022-11-25T14:05:50.422Z,-60
2022-11-25T14:06:37.831Z,-59
2022-11-25T14:07:25.167Z,-60
2022-11-25T14:08:12.475Z,-59
2022-11-25T14:08:59.882Z,-60
2022-11-25T14:09:47.228Z,-59
2022-11-25T14:10:34.561Z,-59
2022-11-25T14:11:21.912Z,-60
2022-11-25T14:12:09.189Z,-60
2022-11-25T14:12:56.496Z,-57
2022-11-25T14:13:43.908Z,-62
2022-11-25T14:14:31.224Z,-61
2022-11-25T14:15:18.549Z,-61
2022-11-25T14:16:07.310Z,-61
2022-11-25T14:16:54.977Z,-61
2022-11-25T14:17:42.650Z,-62
2022-11-25T14:19:00.390Z,-59
2022-11-25T14:20:24.761Z,-60
2022-11-25T14:21:12.167Z,-60
2022-11-25T14:21:59.569Z,-61
2022-11-25T14:22:46.897Z,-61
2022-11-25T14:23:34.303Z,-61
2022-11-25T14:24:21.608Z,-62
2022-11-25T14:25:08.934Z,-61
2022-11-25T14:25:56.367Z,-59
2022-11-25T14:26:50.854Z,-60
2022-11-25T14:27:38.219Z,-58
2022-11-25T14:28:25.654Z,-59
2022-11-25T14:29:13.014Z,-59
2022-11-25T14:30:00.315Z,-59
2022-11-25T14:30:51.864Z,-59
2022-11-25T14:31:40.810Z,-62
2022-11-25T14:32:28.175Z,-62
2022-11-25T14:33:15.477Z,-61
2022-11-25T14:34:02.792Z,-61
2022-11-25T14:34:50.219Z,-60
2022-11-25T14:35:43.474Z,-61
2022-11-25T14:36:32.574Z,-62
2022-11-25T14:37:19.985Z,-60
2022-11-25T14:38:07.324Z,-61
2022-11-25T14:38:54.628Z,-60
2022-11-25T14:39:42.094Z,-60
2022-11-25T14:40:29.383Z,-60
2022-11-25T14:41:16.698Z,-59
2022-11-25T14:42:04.071Z,-59
2022-11-25T14:42:51.398Z,-58
2022-11-25T14:43:38.686Z,-58
2022-11-25T14:44:26.136Z,-59
2022-11-25T14:45:13.441Z,-60
2022-11-25T14:46:00.789Z,-60
2022-11-25T14:46:48.133Z,-60
2022-11-25T14:47:38.959Z,-60
2022-11-25T14:48:26.674Z,-59
2022-11-25T14:49:44.165Z,-61
2022-11-25T14:50:33.665Z,-59
2022-11-25T14:51:08.680Z,-60
2022-11-25T14:51:56.079Z,-60
2022-11-25T14:52:43.433Z,-60
2022-11-25T14:53:30.753Z,-62
2022-11-25T14:54:18.153Z,-60
2022-11-25T14:55:05.440Z,-62
2022-11-25T14:55:52.766Z,-62
2022-11-25T14:56:40.173Z,-62
2022-11-25T14:57:27.598Z,-61
2022-11-25T14:58:14.895Z,-59
2022-11-25T14:59:02.384Z,-62
2022-11-25T14:59:49.672Z,-60
2022-11-25T15:00:36.974Z,-59
2022-11-25T15:01:24.360Z,-60
2022-11-25T15:02:11.716Z,-61
2022-11-25T15:02:59.022Z,-59
2022-11-25T15:03:46.551Z,-59
2022-11-25T15:04:33.917Z,-59
2022-11-25T15:05:21.193Z,-57
2022-11-25T15:06:08.690Z,-59
2022-11-25T15:06:55.976Z,-58
2022-11-25T15:07:43.278Z,-57
2022-11-25T15:08:30.694Z,-58
2022-11-25T15:09:17.970Z,-59
2022-11-25T15:10:05.291Z,-58
2022-11-25T15:10:52.709Z,-60
2022-11-25T15:11:40.068Z,-58
2022-11-25T15:12:27.366Z,-59
2022-11-25T15:13:14.737Z,-59
2022-11-25T15:14:02.007Z,-61
2022-11-25T15:14:49.283Z,-61
2022-11-25T15:15:36.762Z,-59
2022-11-25T15:16:24.140Z,-60
2022-11-25T15:17:11.489Z,-61
2022-11-25T15:17:58.883Z,-60
2022-11-25T15:18:46.172Z,-60
2022-11-25T15:19:33.981Z,-61
2022-11-25T15:20:21.446Z,-62
2022-11-25T15:21:08.863Z,-60
2022-11-25T15:22:22.011Z,-60
2022-11-25T15:22:53.501Z,-60
2022-11-25T15:23:40.873Z,-60
2022-11-25T15:24:28.148Z,-60
2022-11-25T15:25:15.480Z,-59
2022-11-25T15:26:02.861Z,-61
2022-11-25T15:26:50.149Z,-58
2022-11-25T15:27:37.441Z,-58
2022-11-25T15:28:24.870Z,-57
2022-11-25T15:29:12.193Z,-56
2022-11-25T15:29:59.467Z,-56
2022-11-25T15:30:46.898Z,-57
2022-11-25T15:31:34.278Z,-59
2022-11-25T15:32:21.621Z,-59
2022-11-25T15:33:09.028Z,-58
2022-11-25T15:33:56.331Z,-59
2022-11-25T15:34:43.665Z,-60
2022-11-25T15:35:31.032Z,-60
2022-11-25T15:36:18.309Z,-60
2022-11-25T15:37:05.650Z,-59
2022-11-25T15:37:53.041Z,-60
2022-11-25T15:38:40.342Z,-62
2022-11-25T15:39:27.659Z,-60
2022-11-25T15:40:15.061Z,-62
2022-11-25T15:41:02.377Z,-61
2022-11-25T15:41:49.980Z,-60
2022-11-25T15:42:37.345Z,-59
2022-11-25T15:43:24.832Z,-63
2022-11-25T15:44:12.215Z,-58
2022-11-25T15:45:03.817Z,-59
2022-11-25T15:45:55.680Z,-62
2022-11-25T15:46:43.395Z,-60
2022-11-25T15:47:31.088Z,-60
2022-11-25T15:48:18.422Z,-62
2022-11-25T15:49:05.750Z,-60
2022-11-25T15:49:53.141Z,-62
2022-11-25T15:50:40.460Z,-62
2022-11-25T15:51:27.786Z,-65
2022-11-25T15:52:15.194Z,-61
2022-11-25T15:53:02.646Z,-61
2022-11-25T15:53:49.927Z,-63
2022-11-25T15:54:37.352Z,-65
2022-11-25T15:55:24.626Z,-61
2022-11-25T15:56:11.912Z,-62
2022-11-25T15:56:59.364Z,-60
2022-11-25T15:57:46.693Z,-60
2022-11-25T15:58:33.958Z,-62
2022-11-25T15:59:21.448Z,-63
2022-11-25T16:00:08.733Z,-61
2022-11-25T16:00:56.055Z,-63
2022-11-25T16:01:43.539Z,-63
2022-11-25T16:02:31.049Z,-61
2022-11-25T16:03:18.561Z,-60
2022-11-25T16:04:05.894Z,-59
2022-11-25T16:04:53.398Z,-62
2022-11-25T16:05:40.932Z,-63
2022-11-25T16:06:28.362Z,-62
2022-11-25T16:07:15.695Z,-63
2022-11-25T16:08:03.000Z,-62
2022-11-25T16:08:50.509Z,-62
2022-11-25T16:09:38.100Z,-62
2022-11-25T16:10:25.811Z,-62
2022-11-25T16:11:13.189Z,-62
2022-11-25T16:12:00.468Z,-61
2022-11-25T16:12:47.747Z,-62